createdAt,value
2022-12-31T00:00:35.354Z,10.37
2022-12-31T00:03:03.701Z,10.39
2022-12-31T00:05:32.060Z,10.40
2022-12-31T00:08:01.744Z,10.41
2022-12-31T00:10:30.424Z,10.43
2022-12-31T00:12:58.473Z,10.45
2022-12-31T00:15:26.560Z,10.48
2022-12-31T00:17:54.651Z,10.51
2022-12-31T00:20:22.740Z,10.56
2022-12-31T00:22:50.811Z,10.58
2022-12-31T00:25:20.322Z,10.61
2022-12-31T00:27:48.412Z,10.64
2022-12-31T00:30:16.601Z,10.66
2022-12-31T00:32:44.678Z,10.67
2022-12-31T00:35:12.748Z,10.66
2022-12-31T00:37:40.820Z,10.68
2022-12-31T00:40:10.719Z,10.69
2022-12-31T00:42:40.150Z,10.69
2022-12-31T00:45:09.327Z,10.70
2022-12-31T00:47:37.468Z,10.72
2022-12-31T00:50:06.398Z,10.72
2022-12-31T00:52:34.593Z,10.71
2022-12-31T00:55:02.710Z,10.71
2022-12-31T00:57:30.766Z,10.72
2022-12-31T01:00:00.237Z,10.72
2022-12-31T01:02:28.436Z,10.73
2022-12-31T01:04:56.601Z,10.74
2022-12-31T01:07:24.710Z,10.74
2022-12-31T01:09:53.857Z,10.73
2022-12-31T01:12:21.938Z,10.74
2022-12-31T01:14:49.983Z,10.72
2022-12-31T01:17:19.477Z,10.72
2022-12-31T01:19:47.592Z,10.69
2022-12-31T01:22:15.803Z,10.69
2022-12-31T01:24:43.976Z,10.68
2022-12-31T01:27:12.010Z,10.66
2022-12-31T01:29:43.055Z,10.65
2022-12-31T01:32:11.097Z,10.66
2022-12-31T01:34:40.580Z,10.66
2022-12-31T01:37:08.649Z,10.66
2022-12-31T01:39:36.743Z,10.67
2022-12-31T01:42:07.559Z,10.65
2022-12-31T01:44:55.581Z,10.65
2022-12-31T01:47:32.761Z,10.67
2022-12-31T01:50:05.779Z,10.67
2022-12-31T01:52:38.579Z,10.68
2022-12-31T01:55:11.149Z,10.70
2022-12-31T01:57:39.375Z,10.70
2022-12-31T02:00:09.961Z,10.71
2022-12-31T02:02:38.142Z,10.73
2022-12-31T02:05:13.518Z,10.73
2022-12-31T02:07:41.827Z,10.72
2022-12-31T02:10:10.072Z,10.71
2022-12-31T02:12:38.193Z,10.71
2022-12-31T02:15:07.436Z,10.70
2022-12-31T02:17:42.283Z,10.69
2022-12-31T02:20:47.649Z,10.67
2022-12-31T02:23:53.160Z,10.68
2022-12-31T02:26:50.931Z,10.68
2022-12-31T02:29:57.878Z,10.67
2022-12-31T02:32:32.889Z,10.68
2022-12-31T02:35:05.828Z,10.69
2022-12-31T02:37:34.777Z,10.68
2022-12-31T02:40:03.311Z,10.67
2022-12-31T02:42:31.375Z,10.68
2022-12-31T02:44:59.422Z,10.69
2022-12-31T02:47:42.334Z,10.68
2022-12-31T02:50:23.452Z,10.68
2022-12-31T02:52:59.604Z,10.69
2022-12-31T02:55:31.815Z,10.70
2022-12-31T02:58:09.210Z,10.69
2022-12-31T03:00:59.425Z,10.69
2022-12-31T03:03:29.590Z,10.68
2022-12-31T03:05:58.271Z,10.67
2022-12-31T03:08:27.646Z,10.65
2022-12-31T03:10:57.789Z,10.65
2022-12-31T03:13:25.004Z,10.65
2022-12-31T03:15:53.104Z,10.66
2022-12-31T03:18:41.909Z,10.64
2022-12-31T03:21:31.987Z,10.64
2022-12-31T03:24:17.598Z,10.65
2022-12-31T03:26:45.684Z,10.66
2022-12-31T03:29:13.733Z,10.67
2022-12-31T03:31:41.840Z,10.70
2022-12-31T03:34:09.901Z,10.71
2022-12-31T03:36:39.638Z,10.70
2022-12-31T03:39:07.701Z,10.71
2022-12-31T03:41:35.764Z,10.69
2022-12-31T03:44:03.839Z,10.69
2022-12-31T03:46:31.893Z,10.68
2022-12-31T03:48:59.976Z,10.67
2022-12-31T03:51:28.040Z,10.67
2022-12-31T03:53:57.465Z,10.67
2022-12-31T03:56:25.552Z,10.66
2022-12-31T03:58:53.597Z,10.65
2022-12-31T04:01:24.324Z,10.65
2022-12-31T04:03:52.551Z,10.64
2022-12-31T04:06:20.632Z,10.64
2022-12-31T04:08:48.709Z,10.63
2022-12-31T04:11:21.148Z,10.64
2022-12-31T04:13:51.025Z,10.62
2022-12-31T04:16:19.165Z,10.60
2022-12-31T04:18:47.258Z,10.59
2022-12-31T04:21:15.331Z,10.60
2022-12-31T04:23:43.445Z,10.60
2022-12-31T04:26:11.554Z,10.59
2022-12-31T04:28:40.986Z,10.60
2022-12-31T04:31:09.076Z,10.61
2022-12-31T04:33:37.146Z,10.63
2022-12-31T04:36:07.627Z,10.63
2022-12-31T04:38:35.717Z,10.65
2022-12-31T04:41:20.847Z,10.64
2022-12-31T04:43:51.883Z,10.65
2022-12-31T04:46:22.093Z,10.64
2022-12-31T04:48:50.329Z,10.63
2022-12-31T04:51:18.441Z,10.62
2022-12-31T04:53:46.808Z,10.59
2022-12-31T04:56:16.223Z,10.60
2022-12-31T04:58:44.380Z,10.58
2022-12-31T05:01:14.500Z,10.57
2022-12-31T05:03:42.839Z,10.53
2022-12-31T05:06:13.889Z,10.53
2022-12-31T05:08:41.971Z,10.51
2022-12-31T05:11:10.683Z,10.50
2022-12-31T05:13:39.057Z,10.50
2022-12-31T05:16:08.515Z,10.49
2022-12-31T05:18:38.165Z,10.48
2022-12-31T05:21:07.332Z,10.48
2022-12-31T05:23:35.742Z,10.50
2022-12-31T05:26:03.835Z,10.49
2022-12-31T05:28:32.646Z,10.49
2022-12-31T05:31:00.905Z,10.50
2022-12-31T05:33:29.037Z,10.50
2022-12-31T05:35:59.094Z,10.49
2022-12-31T05:38:27.320Z,10.49
2022-12-31T05:41:03.565Z,10.49
2022-12-31T05:43:31.957Z,10.49
2022-12-31T05:46:01.809Z,10.50
2022-12-31T05:48:30.018Z,10.50
2022-12-31T05:50:59.548Z,10.52
2022-12-31T05:53:27.634Z,10.53
2022-12-31T05:55:55.732Z,10.53
2022-12-31T05:58:23.793Z,10.55
2022-12-31T06:00:52.794Z,10.56
2022-12-31T06:03:20.924Z,10.57
2022-12-31T06:05:49.041Z,10.59
2022-12-31T06:08:18.499Z,10.60
2022-12-31T06:10:46.545Z,10.62
2022-12-31T06:13:14.635Z,10.63
2022-12-31T06:15:42.758Z,10.66
2022-12-31T06:18:10.841Z,10.67
2022-12-31T06:20:38.978Z,10.67
2022-12-31T06:23:07.359Z,10.68
2022-12-31T06:25:37.385Z,10.70
2022-12-31T06:28:05.871Z,10.71
2022-12-31T06:30:33.976Z,10.74
2022-12-31T06:33:02.009Z,10.74
2022-12-31T06:35:30.110Z,10.75
2022-12-31T06:37:58.222Z,10.76
2022-12-31T06:40:26.409Z,10.76
2022-12-31T06:42:59.922Z,10.75
2022-12-31T06:45:28.544Z,10.75
2022-12-31T06:47:56.666Z,10.74
2022-12-31T06:50:24.738Z,10.74
2022-12-31T06:52:52.798Z,10.75
2022-12-31T06:55:21.747Z,10.74
2022-12-31T06:57:50.285Z,10.75
2022-12-31T07:00:21.691Z,10.75
2022-12-31T07:03:07.526Z,10.76
2022-12-31T07:05:43.006Z,10.78
2022-12-31T07:08:26.045Z,10.79
2022-12-31T07:10:59.893Z,10.81
2022-12-31T07:13:42.867Z,10.83
2022-12-31T07:16:24.439Z,10.83
2022-12-31T07:18:56.218Z,10.84
2022-12-31T07:21:33.134Z,10.83
2022-12-31T07:24:01.789Z,10.80
2022-12-31T07:26:42.279Z,10.78
2022-12-31T07:29:17.249Z,10.76
2022-12-31T07:31:56.331Z,10.75
2022-12-31T07:34:31.180Z,10.75
2022-12-31T07:37:05.184Z,10.75
2022-12-31T07:39:39.029Z,10.76
2022-12-31T07:42:15.141Z,10.76
2022-12-31T07:44:56.275Z,10.76
2022-12-31T07:47:27.264Z,10.75
2022-12-31T07:49:56.582Z,10.77
2022-12-31T07:52:25.354Z,10.76
2022-12-31T07:54:53.422Z,10.76
2022-12-31T07:57:22.562Z,10.76
2022-12-31T08:00:00.333Z,10.77
2022-12-31T08:02:40.985Z,10.77
2022-12-31T08:05:15.679Z,10.77
2022-12-31T08:07:49.255Z,10.76
2022-12-31T08:10:21.282Z,10.77
2022-12-31T08:12:50.694Z,10.77
2022-12-31T08:15:23.047Z,10.77
2022-12-31T08:17:55.865Z,10.77
2022-12-31T08:20:24.014Z,10.77
2022-12-31T08:23:15.224Z,10.76
2022-12-31T08:25:57.987Z,10.75
2022-12-31T08:28:33.301Z,10.75
2022-12-31T08:31:05.424Z,10.75
2022-12-31T08:33:44.668Z,10.74
2022-12-31T08:36:18.150Z,10.73
2022-12-31T08:38:51.565Z,10.74
2022-12-31T08:41:25.614Z,10.74
2022-12-31T08:44:02.291Z,10.74
2022-12-31T08:46:33.987Z,10.74
2022-12-31T08:49:04.146Z,10.73
2022-12-31T08:51:32.753Z,10.73
2022-12-31T08:54:01.344Z,10.72
2022-12-31T08:56:32.357Z,10.69
2022-12-31T08:59:11.961Z,10.69
2022-12-31T09:01:51.518Z,10.67
2022-12-31T09:04:26.870Z,10.65
2022-12-31T09:06:59.608Z,10.64
2022-12-31T09:09:37.390Z,10.62
2022-12-31T09:12:12.254Z,10.61
2022-12-31T09:14:47.002Z,10.61
2022-12-31T09:17:32.978Z,10.61
2022-12-31T09:20:03.466Z,10.63
2022-12-31T09:22:31.973Z,10.64
2022-12-31T09:25:00.501Z,10.63
2022-12-31T09:27:31.425Z,10.61
2022-12-31T09:30:03.957Z,10.61
2022-12-31T09:32:41.241Z,10.61
2022-12-31T09:35:16.653Z,10.61
2022-12-31T09:37:47.847Z,10.60
2022-12-31T09:40:50.538Z,10.60
2022-12-31T09:43:54.581Z,10.59
2022-12-31T09:47:04.798Z,10.59
2022-12-31T09:50:13.833Z,10.57
2022-12-31T09:52:55.054Z,10.57
2022-12-31T09:55:35.016Z,10.56
2022-12-31T09:58:13.437Z,10.56
2022-12-31T10:00:45.092Z,10.55
2022-12-31T10:03:30.868Z,10.55
2022-12-31T10:06:12.105Z,10.55
2022-12-31T10:08:52.917Z,10.55
2022-12-31T10:11:25.716Z,10.53
2022-12-31T10:14:05.485Z,10.54
2022-12-31T10:16:54.239Z,10.54
2022-12-31T10:19:41.638Z,10.53
2022-12-31T10:22:18.480Z,10.55
2022-12-31T10:25:08.690Z,10.54
2022-12-31T10:27:49.101Z,10.54
2022-12-31T10:30:19.252Z,10.51
2022-12-31T10:32:59.790Z,10.50
2022-12-31T10:35:39.838Z,10.48
2022-12-31T10:38:18.999Z,10.47
2022-12-31T10:41:17.918Z,10.46
2022-12-31T10:44:03.281Z,10.44
2022-12-31T10:47:01.023Z,10.43
2022-12-31T10:49:58.857Z,10.41
2022-12-31T10:53:06.473Z,10.40
2022-12-31T10:56:15.135Z,10.38
2022-12-31T10:59:07.024Z,10.38
2022-12-31T11:01:45.878Z,10.34
2022-12-31T11:04:33.592Z,10.30
2022-12-31T11:07:31.310Z,10.29
2022-12-31T11:10:24.722Z,10.25
2022-12-31T11:13:17.528Z,10.24
2022-12-31T11:16:03.082Z,10.20
2022-12-31T11:18:39.042Z,10.18
2022-12-31T11:21:20.555Z,10.15
2022-12-31T11:23:57.911Z,10.12
2022-12-31T11:26:34.819Z,10.10
2022-12-31T11:29:14.254Z,10.05
2022-12-31T11:31:52.311Z,10.02
2022-12-31T11:34:43.604Z,10.01
2022-12-31T11:37:23.295Z,10.01
2022-12-31T11:39:58.750Z,9.99
2022-12-31T11:42:38.512Z,9.96
2022-12-31T11:45:16.132Z,9.94
2022-12-31T11:50:54.613Z,9.95
2022-12-31T11:53:34.114Z,9.94
2022-12-31T11:56:11.277Z,9.94
2022-12-31T11:58:40.181Z,9.95
2022-12-31T12:01:12.831Z,9.97
2022-12-31T12:03:43.660Z,10.00
2022-12-31T12:06:12.971Z,10.05
2022-12-31T12:08:41.642Z,10.08
2022-12-31T12:11:18.812Z,10.14
2022-12-31T12:13:47.192Z,10.20
2022-12-31T12:16:17.079Z,10.29
2022-12-31T12:18:46.930Z,10.35
2022-12-31T12:21:17.287Z,10.43
2022-12-31T12:23:55.772Z,10.52
2022-12-31T12:26:28.930Z,10.60
2022-12-31T12:29:00.263Z,10.71
2022-12-31T12:31:30.571Z,10.81
2022-12-31T12:33:58.908Z,10.92
2022-12-31T12:36:26.985Z,11.02
2022-12-31T12:39:02.974Z,11.09
2022-12-31T12:41:31.099Z,11.18
2022-12-31T12:44:07.274Z,11.27
2022-12-31T12:46:44.662Z,11.34
2022-12-31T12:49:22.022Z,11.43
2022-12-31T12:52:05.343Z,11.51
2022-12-31T12:54:43.464Z,11.60
2022-12-31T12:57:19.243Z,11.68
2022-12-31T13:00:19.462Z,11.75
2022-12-31T13:03:33.446Z,11.87
2022-12-31T13:06:21.118Z,11.95
2022-12-31T13:09:00.227Z,12.01
2022-12-31T13:11:37.503Z,12.07
2022-12-31T13:14:14.483Z,12.11
2022-12-31T13:16:48.182Z,12.16
2022-12-31T13:19:21.290Z,12.18
2022-12-31T13:21:54.376Z,12.17
2022-12-31T13:24:33.384Z,12.16
2022-12-31T13:27:08.071Z,12.14
2022-12-31T13:29:36.741Z,12.15
2022-12-31T13:32:08.850Z,12.15
2022-12-31T13:34:41.507Z,12.18
2022-12-31T13:37:28.518Z,12.21
2022-12-31T13:40:02.924Z,12.25
2022-12-31T13:42:37.354Z,12.28
2022-12-31T13:45:11.344Z,12.31
2022-12-31T13:47:43.142Z,12.34
2022-12-31T13:50:18.843Z,12.37
2022-12-31T13:52:53.425Z,12.39
2022-12-31T13:55:24.811Z,12.44
2022-12-31T13:57:56.390Z,12.47
2022-12-31T14:00:26.550Z,12.47
2022-12-31T14:02:59.736Z,12.48
2022-12-31T14:05:34.253Z,12.47
2022-12-31T14:08:04.115Z,12.48
2022-12-31T14:10:42.859Z,12.49
2022-12-31T14:13:32.411Z,12.50
2022-12-31T14:16:09.839Z,12.49
2022-12-31T14:18:44.928Z,12.48
2022-12-31T14:21:19.724Z,12.49
2022-12-31T14:23:51.587Z,12.48
2022-12-31T14:26:25.930Z,12.49
2022-12-31T14:29:03.129Z,12.49
2022-12-31T14:31:53.315Z,12.51
2022-12-31T14:34:27.645Z,12.54
2022-12-31T14:37:01.142Z,12.55
2022-12-31T14:39:42.887Z,12.58
2022-12-31T14:42:20.874Z,12.59
2022-12-31T14:45:01.038Z,12.64
2022-12-31T14:47:37.864Z,12.68
2022-12-31T14:50:10.649Z,12.72
2022-12-31T14:52:51.610Z,12.77
2022-12-31T14:55:24.664Z,12.79
2022-12-31T14:58:26.570Z,12.80
2022-12-31T15:00:51.977Z,12.83
2022-12-31T15:03:26.527Z,12.84
2022-12-31T15:05:58.469Z,12.86
2022-12-31T15:08:45.827Z,12.88
2022-12-31T15:11:32.833Z,12.88
2022-12-31T15:14:22.982Z,12.91
2022-12-31T15:16:57.198Z,12.92
2022-12-31T15:19:56.539Z,12.92
2022-12-31T15:22:36.894Z,12.94
2022-12-31T15:25:26.879Z,12.95
2022-12-31T15:27:55.666Z,12.97
2022-12-31T15:30:48.495Z,12.99
2022-12-31T15:33:21.078Z,13.01
2022-12-31T15:35:51.849Z,13.03
2022-12-31T15:38:32.594Z,13.03
2022-12-31T15:41:02.489Z,13.06
2022-12-31T15:43:36.964Z,13.07
2022-12-31T15:46:15.621Z,13.06
2022-12-31T15:48:52.078Z,13.08
2022-12-31T15:51:23.851Z,13.08
2022-12-31T15:53:54.252Z,13.09
2022-12-31T15:56:31.344Z,13.07
2022-12-31T15:59:00.995Z,13.07
2022-12-31T16:01:31.746Z,13.07
2022-12-31T16:04:02.796Z,13.04
2022-12-31T16:06:33.884Z,13.04
2022-12-31T16:09:02.270Z,13.03
2022-12-31T16:11:32.169Z,13.02
2022-12-31T16:14:00.468Z,12.99
2022-12-31T16:16:30.456Z,12.95
2022-12-31T16:18:58.985Z,12.92
2022-12-31T16:21:30.499Z,12.89
2022-12-31T16:23:59.880Z,12.85
2022-12-31T16:26:33.660Z,12.82
2022-12-31T16:29:04.296Z,12.80
2022-12-31T16:31:32.431Z,12.76
2022-12-31T16:34:07.707Z,12.74
2022-12-31T16:36:36.512Z,12.71
2022-12-31T16:39:24.556Z,12.68
2022-12-31T16:42:05.145Z,12.63
2022-12-31T16:44:33.219Z,12.61
2022-12-31T16:47:02.978Z,12.59
2022-12-31T16:49:33.112Z,12.56
2022-12-31T16:52:04.627Z,12.52
2022-12-31T16:54:35.415Z,12.50
2022-12-31T16:57:06.313Z,12.45
2022-12-31T16:59:37.231Z,12.41
2022-12-31T17:02:12.692Z,12.40
2022-12-31T17:04:46.933Z,12.36
2022-12-31T17:07:41.034Z,12.31
2022-12-31T17:10:23.506Z,12.29
2022-12-31T17:15:45.693Z,12.24
2022-12-31T17:18:18.482Z,12.21
2022-12-31T17:20:47.392Z,12.19
2022-12-31T17:23:23.971Z,12.19
2022-12-31T17:26:00.128Z,12.19
2022-12-31T17:28:33.277Z,12.17
2022-12-31T17:31:02.522Z,12.16
2022-12-31T17:33:32.261Z,12.14
2022-12-31T17:36:22.420Z,12.14
2022-12-31T17:38:50.551Z,12.13
2022-12-31T17:41:27.411Z,12.12
2022-12-31T17:43:58.125Z,12.09
2022-12-31T17:46:26.675Z,12.07
2022-12-31T17:48:58.613Z,12.04
2022-12-31T17:51:26.687Z,12.02
2022-12-31T17:53:54.749Z,11.99
2022-12-31T17:56:22.867Z,11.97
2022-12-31T17:58:52.214Z,11.96
2022-12-31T18:01:24.290Z,11.93
2022-12-31T18:03:52.479Z,11.91
2022-12-31T18:06:20.593Z,11.88
2022-12-31T18:08:48.826Z,11.87
2022-12-31T18:11:18.506Z,11.84
2022-12-31T18:13:46.945Z,11.82
2022-12-31T18:16:15.684Z,11.81
2022-12-31T18:18:45.374Z,11.78
2022-12-31T18:21:20.726Z,11.79
2022-12-31T18:23:49.529Z,11.76
2022-12-31T18:26:19.551Z,11.76
2022-12-31T18:28:47.850Z,11.75
2022-12-31T18:31:16.819Z,11.72
2022-12-31T18:33:47.227Z,11.72
2022-12-31T18:36:17.293Z,11.71
2022-12-31T18:38:45.654Z,11.71
2022-12-31T18:41:17.860Z,11.69
2022-12-31T18:43:46.424Z,11.68
2022-12-31T18:46:17.232Z,11.66
2022-12-31T18:48:47.128Z,11.66
2022-12-31T18:51:16.210Z,11.64
2022-12-31T18:53:44.358Z,11.63
2022-12-31T18:56:13.879Z,11.62
2022-12-31T18:58:42.361Z,11.61
2022-12-31T19:01:25.190Z,11.60
2022-12-31T19:03:55.208Z,11.58
2022-12-31T19:06:23.413Z,11.57
2022-12-31T19:08:51.722Z,11.57
2022-12-31T19:11:20.336Z,11.57
2022-12-31T19:13:49.065Z,11.56
2022-12-31T19:16:18.038Z,11.56
2022-12-31T19:18:47.244Z,11.56
2022-12-31T19:21:18.726Z,11.54
2022-12-31T19:23:47.475Z,11.53
2022-12-31T19:26:17.308Z,11.53
2022-12-31T19:28:45.848Z,11.52
2022-12-31T19:31:14.286Z,11.51
2022-12-31T19:33:42.833Z,11.49
2022-12-31T19:36:15.340Z,11.50
2022-12-31T19:38:45.423Z,11.49
2022-12-31T19:41:18.326Z,11.46
2022-12-31T19:43:46.773Z,11.45
2022-12-31T19:46:15.827Z,11.43
2022-12-31T19:48:44.164Z,11.41
2022-12-31T19:51:17.223Z,11.42
2022-12-31T19:53:47.593Z,11.41
2022-12-31T19:56:17.810Z,11.41
2022-12-31T19:58:46.168Z,11.40
2022-12-31T20:01:19.156Z,11.41
2022-12-31T20:03:47.534Z,11.42
2022-12-31T20:06:15.914Z,11.41
2022-12-31T20:08:44.358Z,11.42
2022-12-31T20:11:15.928Z,11.43
2022-12-31T20:13:44.347Z,11.42
2022-12-31T20:16:14.344Z,11.44
2022-12-31T20:18:43.515Z,11.44
2022-12-31T20:21:13.394Z,11.47
2022-12-31T20:23:41.656Z,11.47
2022-12-31T20:26:10.437Z,11.47
2022-12-31T20:28:40.041Z,11.47
2022-12-31T20:31:08.878Z,11.48
2022-12-31T20:33:37.541Z,11.49
2022-12-31T20:36:07.088Z,11.50
2022-12-31T20:38:35.219Z,11.50
2022-12-31T20:41:07.122Z,11.52
2022-12-31T20:43:35.881Z,11.53
2022-12-31T20:46:14.502Z,11.54
2022-12-31T20:48:43.712Z,11.54
2022-12-31T20:51:11.900Z,11.56
2022-12-31T20:53:40.197Z,11.57
2022-12-31T20:56:10.345Z,11.58
2022-12-31T20:58:38.478Z,11.59
2022-12-31T21:01:09.238Z,11.59
2022-12-31T21:04:04.372Z,11.61
2022-12-31T21:06:26.048Z,11.64
2022-12-31T21:08:55.449Z,11.69
2022-12-31T21:11:40.898Z,11.74
2022-12-31T21:14:08.967Z,11.79
2022-12-31T21:16:38.507Z,11.86
2022-12-31T21:19:06.734Z,11.90
2022-12-31T21:21:35.058Z,11.96
2022-12-31T21:24:03.411Z,11.99
2022-12-31T21:26:31.612Z,12.04
2022-12-31T21:28:59.946Z,12.07
2022-12-31T21:31:28.229Z,12.10
2022-12-31T21:33:57.781Z,12.11
2022-12-31T21:36:25.954Z,12.13
2022-12-31T21:38:54.034Z,12.15
2022-12-31T21:41:39.412Z,12.17
2022-12-31T21:44:07.504Z,12.16
2022-12-31T21:46:35.679Z,12.17
2022-12-31T21:49:05.371Z,12.16
2022-12-31T21:51:53.449Z,12.17
2022-12-31T21:54:42.010Z,12.19
2022-12-31T21:57:09.154Z,12.19
2022-12-31T22:00:16.363Z,12.19
2022-12-31T22:03:00.280Z,12.22
2022-12-31T22:05:29.809Z,12.22
2022-12-31T22:07:57.939Z,12.23
2022-12-31T22:10:26.040Z,12.24
2022-12-31T22:12:54.175Z,12.26
2022-12-31T22:15:22.354Z,12.27
2022-12-31T22:17:50.411Z,12.28
2022-12-31T22:20:27.532Z,12.30
2022-12-31T22:22:57.914Z,12.31
2022-12-31T22:25:26.001Z,12.30
2022-12-31T22:28:27.481Z,12.32
2022-12-31T22:30:42.136Z,12.35
2022-12-31T22:33:10.252Z,12.35
2022-12-31T22:35:38.316Z,12.35
2022-12-31T22:38:12.161Z,12.36
2022-12-31T22:40:40.455Z,12.36
2022-12-31T22:43:08.567Z,12.36
2022-12-31T22:45:37.553Z,12.37
2022-12-31T22:48:06.235Z,12.36
2022-12-31T22:50:34.352Z,12.36
2022-12-31T22:53:02.445Z,12.37
2022-12-31T22:55:31.909Z,12.37
2022-12-31T22:57:59.969Z,12.37
2022-12-31T23:00:38.618Z,12.38
2022-12-31T23:03:07.923Z,12.38
2022-12-31T23:05:36.025Z,12.36
2022-12-31T23:08:10.309Z,12.42
2022-12-31T23:11:00.631Z,12.43
2022-12-31T23:13:50.437Z,12.47
2022-12-31T23:16:37.156Z,12.51
2022-12-31T23:19:23.392Z,12.53
2022-12-31T23:22:09.135Z,12.55
2022-12-31T23:24:37.326Z,12.62
2022-12-31T23:27:07.563Z,12.65
2022-12-31T23:29:43.730Z,12.70
2022-12-31T23:32:14.763Z,12.74
2022-12-31T23:34:44.002Z,12.79
2022-12-31T23:37:12.105Z,12.84
2022-12-31T23:39:40.463Z,12.90
2022-12-31T23:42:09.985Z,12.92
2022-12-31T23:44:38.100Z,12.96
2022-12-31T23:47:06.399Z,13.00
2022-12-31T23:49:34.490Z,13.08
2022-12-31T23:52:02.577Z,13.09
2022-12-31T23:54:30.637Z,13.13
2022-12-31T23:56:58.714Z,13.18
2022-12-31T23:59:28.135Z,13.20
